createdAt,value
2016-04-26T00:00:20.092Z,0
2016-04-26T00:01:20.297Z,0
2016-04-26T00:02:19.925Z,0
2016-04-26T00:03:19.833Z,0
2016-04-26T00:04:19.977Z,0
2016-04-26T00:05:20.030Z,0
2016-04-26T00:06:19.893Z,0
2016-04-26T00:07:19.863Z,0
2016-04-26T00:08:19.835Z,0
2016-04-26T00:09:19.806Z,0
2016-04-26T00:10:19.778Z,0
2016-04-26T00:11:19.765Z,0
2016-04-26T00:12:19.720Z,0
2016-04-26T00:13:19.708Z,0
2016-04-26T00:14:19.648Z,0
2016-04-26T00:15:19.635Z,0
2016-04-26T00:16:19.294Z,0
2016-04-26T00:17:19.500Z,0
2016-04-26T00:18:19.534Z,0
2016-04-26T00:19:19.506Z,0
2016-04-26T00:20:19.477Z,0
2016-04-26T00:21:19.448Z,0
2016-04-26T00:22:19.403Z,0
2016-04-26T00:23:19.391Z,0
2016-04-26T00:24:19.378Z,0
2016-04-26T00:25:19.350Z,0
2016-04-26T00:26:19.289Z,0
2016-04-26T00:27:19.261Z,0
2016-04-26T00:28:19.217Z,0
2016-04-26T00:29:19.204Z,0
2016-04-26T00:30:19.160Z,0
2016-04-26T00:31:20.210Z,0
2016-04-26T00:32:18.963Z,0
2016-04-26T00:33:19.074Z,0
2016-04-26T00:34:19.046Z,0
2016-04-26T00:35:19.001Z,0
2016-04-26T00:36:19.004Z,0
2016-04-26T00:37:18.960Z,0
2016-04-26T00:38:18.963Z,0
2016-04-26T00:39:18.903Z,0
2016-04-26T00:40:18.890Z,0
2016-04-26T00:41:18.815Z,0
2016-04-26T00:42:18.801Z,0
2016-04-26T00:43:18.789Z,0
2016-04-26T00:44:18.744Z,0
2016-04-26T00:45:18.715Z,0
2016-04-26T00:46:18.734Z,0
2016-04-26T00:47:18.455Z,0
2016-04-26T00:48:18.615Z,0
2016-04-26T00:49:18.430Z,0
2016-04-26T00:50:18.541Z,0
2016-04-26T00:51:18.529Z,0
2016-04-26T00:52:18.484Z,0
2016-04-26T00:53:18.487Z,0
2016-04-26T00:54:18.444Z,0
2016-04-26T00:55:18.414Z,0
2016-04-26T00:56:18.370Z,0
2016-04-26T00:57:18.341Z,0
2016-04-26T00:58:18.313Z,0
2016-04-26T00:59:18.269Z,0
2016-04-26T01:00:18.256Z,0
2016-04-26T01:01:19.649Z,0
2016-04-26T01:02:18.902Z,0
2016-04-26T01:03:18.154Z,0
2016-04-26T01:04:18.111Z,0
2016-04-26T01:05:18.099Z,0
2016-04-26T01:06:18.069Z,0
2016-04-26T01:07:18.072Z,0
2016-04-26T01:08:17.996Z,0
2016-04-26T01:09:17.968Z,0
2016-04-26T01:10:17.939Z,0
2016-04-26T01:11:17.911Z,0
2016-04-26T01:12:17.867Z,0
2016-04-26T01:13:17.853Z,0
2016-04-26T01:14:17.826Z,0
2016-04-26T01:15:17.781Z,0
2016-04-26T01:16:17.753Z,0
2016-04-26T01:17:19.756Z,0
2016-04-26T01:18:17.679Z,0
2016-04-26T01:19:17.651Z,0
2016-04-26T01:20:17.623Z,0
2016-04-26T01:21:17.609Z,0
2016-04-26T01:22:17.564Z,0
2016-04-26T01:23:17.537Z,0
2016-04-26T01:24:17.492Z,0
2016-04-26T01:25:17.464Z,0
2016-04-26T01:26:17.436Z,0
2016-04-26T01:27:17.422Z,0
2016-04-26T01:28:17.394Z,0
2016-04-26T01:29:17.350Z,0
2016-04-26T01:30:17.306Z,0
2016-04-26T01:31:17.214Z,0
2016-04-26T01:32:17.155Z,0
2016-04-26T01:33:17.219Z,0
2016-04-26T01:34:17.191Z,0
2016-04-26T01:35:17.147Z,0
2016-04-26T01:36:17.135Z,0
2016-04-26T01:37:17.105Z,0
2016-04-26T01:38:17.062Z,0
2016-04-26T01:39:17.018Z,0
2016-04-26T01:40:16.989Z,0
2016-04-26T01:41:16.960Z,0
2016-04-26T01:42:16.947Z,0
2016-04-26T01:43:16.904Z,0
2016-04-26T01:44:16.874Z,0
2016-04-26T01:45:16.846Z,0
2016-04-26T01:46:17.645Z,0
2016-04-26T01:47:18.993Z,0
2016-04-26T01:48:16.745Z,0
2016-04-26T01:49:16.731Z,0
2016-04-26T01:50:16.687Z,0
2016-04-26T01:51:16.659Z,0
2016-04-26T01:52:16.614Z,0
2016-04-26T01:53:16.587Z,0
2016-04-26T01:54:16.558Z,0
2016-04-26T01:55:16.528Z,0
2016-04-26T01:56:16.501Z,0
2016-04-26T01:57:16.456Z,0
2016-04-26T01:58:16.443Z,0
2016-04-26T01:59:16.415Z,0
2016-04-26T02:00:16.355Z,0
2016-04-26T02:01:16.342Z,0
2016-04-26T02:02:16.486Z,0
2016-04-26T02:03:16.285Z,0
2016-04-26T02:04:16.257Z,0
2016-04-26T02:05:16.228Z,0
2016-04-26T02:06:16.215Z,0
2016-04-26T02:07:16.156Z,0
2016-04-26T02:08:16.127Z,0
2016-04-26T02:09:16.098Z,0
2016-04-26T02:10:16.055Z,0
2016-04-26T02:11:16.026Z,0
2016-04-26T02:12:15.981Z,0
2016-04-26T02:13:15.952Z,0
2016-04-26T02:14:15.924Z,0
2016-04-26T02:15:15.911Z,0
2016-04-26T02:16:15.882Z,0
2016-04-26T02:17:15.698Z,0
2016-04-26T02:18:15.826Z,0
2016-04-26T02:19:15.781Z,0
2016-04-26T02:20:15.737Z,0
2016-04-26T02:21:15.709Z,0
2016-04-26T02:22:15.695Z,0
2016-04-26T02:23:15.643Z,0
2016-04-26T02:24:15.614Z,0
2016-04-26T02:25:15.570Z,0
2016-04-26T02:26:15.541Z,0
2016-04-26T02:27:15.529Z,0
2016-04-26T02:28:15.500Z,0
2016-04-26T02:29:15.455Z,0
2016-04-26T02:30:15.427Z,0
2016-04-26T02:31:15.398Z,0
2016-04-26T02:32:17.293Z,0
2016-04-26T02:33:15.357Z,0
2016-04-26T02:34:15.297Z,0
2016-04-26T02:35:15.268Z,0
2016-04-26T02:36:15.224Z,0
2016-04-26T02:37:15.196Z,0
2016-04-26T02:38:15.167Z,0
2016-04-26T02:39:15.140Z,0
2016-04-26T02:40:15.095Z,0
2016-04-26T02:41:15.098Z,0
2016-04-26T02:42:15.053Z,0
2016-04-26T02:43:15.008Z,0
2016-04-26T02:44:14.996Z,0
2016-04-26T02:45:14.968Z,0
2016-04-26T02:46:14.923Z,0
2016-04-26T02:47:15.363Z,0
2016-04-26T02:48:14.851Z,0
2016-04-26T02:49:14.822Z,0
2016-04-26T02:50:14.824Z,0
2016-04-26T02:51:14.764Z,0
2016-04-26T02:52:14.722Z,0
2016-04-26T02:53:14.708Z,0
2016-04-26T02:54:14.694Z,0
2016-04-26T02:55:14.636Z,0
2016-04-26T02:56:14.606Z,0
2016-04-26T02:57:14.563Z,0
2016-04-26T02:58:14.533Z,0
2016-04-26T02:59:14.505Z,0
2016-04-26T03:00:14.508Z,0
2016-04-26T03:01:14.449Z,0
2016-04-26T03:02:14.263Z,0
2016-04-26T03:03:14.375Z,0
2016-04-26T03:04:14.347Z,0
2016-04-26T03:05:14.318Z,0
2016-04-26T03:06:14.274Z,0
2016-04-26T03:07:14.261Z,0
2016-04-26T03:08:14.217Z,0
2016-04-26T03:09:14.204Z,0
2016-04-26T03:10:14.159Z,0
2016-04-26T03:11:14.131Z,0
2016-04-26T03:12:14.087Z,0
2016-04-26T03:13:13.903Z,0
2016-04-26T03:14:14.030Z,0
2016-04-26T03:15:14.001Z,0
2016-04-26T03:16:13.972Z,0
2016-04-26T03:17:13.665Z,0
2016-04-26T03:18:13.901Z,0
2016-04-26T03:19:13.873Z,0
2016-04-26T03:20:13.843Z,0
2016-04-26T03:21:13.800Z,0
2016-04-26T03:22:13.787Z,0
2016-04-26T03:23:13.742Z,0
2016-04-26T03:24:13.745Z,0
2016-04-26T03:25:13.686Z,0
2016-04-26T03:26:13.657Z,0
2016-04-26T03:27:13.612Z,0
2016-04-26T03:28:13.584Z,0
2016-04-26T03:29:13.540Z,0
2016-04-26T03:30:13.527Z,0
2016-04-26T03:31:13.498Z,0
2016-04-26T03:32:13.142Z,0
2016-04-26T03:33:13.425Z,0
2016-04-26T03:34:13.413Z,0
2016-04-26T03:35:13.369Z,0
2016-04-26T03:36:13.324Z,0
2016-04-26T03:37:13.311Z,0
2016-04-26T03:38:13.283Z,0
2016-04-26T03:39:13.239Z,0
2016-04-26T03:40:13.226Z,0
2016-04-26T03:41:13.166Z,0
2016-04-26T03:42:13.138Z,0
2016-04-26T03:43:13.109Z,0
2016-04-26T03:44:13.080Z,0
2016-04-26T03:45:13.035Z,0
2016-04-26T03:46:13.024Z,0
2016-04-26T03:47:13.870Z,0
2016-04-26T03:48:12.950Z,0
2016-04-26T03:49:12.922Z,0
2016-04-26T03:50:12.878Z,0
2016-04-26T03:51:12.865Z,0
2016-04-26T03:52:12.852Z,0
2016-04-26T03:53:12.807Z,0
2016-04-26T03:54:12.779Z,0
2016-04-26T03:55:12.750Z,0
2016-04-26T03:56:12.690Z,0
2016-04-26T03:57:12.662Z,0
2016-04-26T03:58:12.633Z,0
2016-04-26T03:59:12.606Z,0
2016-04-26T04:00:12.561Z,0
2016-04-26T04:01:12.391Z,0
2016-04-26T04:02:12.457Z,0
2016-04-26T04:03:12.491Z,5
2016-04-26T04:04:12.430Z,5
2016-04-26T04:05:12.419Z,5
2016-04-26T04:06:12.374Z,5
2016-04-26T04:07:12.330Z,5
2016-04-26T04:08:12.333Z,5
2016-04-26T04:09:12.272Z,5
2016-04-26T04:10:12.238Z,5
2016-04-26T04:11:12.226Z,10
2016-04-26T04:12:12.196Z,10
2016-04-26T04:13:12.168Z,10
2016-04-26T04:14:12.124Z,10
2016-04-26T04:15:12.111Z,10
2016-04-26T04:16:12.082Z,15
2016-04-26T04:17:11.960Z,15
2016-04-26T04:18:11.994Z,15
2016-04-26T04:19:11.965Z,15
2016-04-26T04:20:11.937Z,15
2016-04-26T04:21:11.923Z,20
2016-04-26T04:22:11.880Z,20
2016-04-26T04:23:11.836Z,20
2016-04-26T04:24:11.823Z,25
2016-04-26T04:25:11.778Z,25
2016-04-26T04:26:11.766Z,25
2016-04-26T04:27:11.722Z,30
2016-04-26T04:28:11.677Z,30
2016-04-26T04:29:11.649Z,30
2016-04-26T04:30:11.635Z,35
2016-04-26T04:31:11.608Z,35
2016-04-26T04:32:12.548Z,40
2016-04-26T04:33:13.644Z,45
2016-04-26T04:34:11.491Z,55
2016-04-26T04:35:11.321Z,60
2016-04-26T04:36:11.418Z,55
2016-04-26T04:37:11.404Z,50
2016-04-26T04:38:11.360Z,50
2016-04-26T04:39:11.176Z,50
2016-04-26T04:40:11.319Z,50
2016-04-26T04:41:11.274Z,50
2016-04-26T04:42:11.230Z,55
2016-04-26T04:43:11.218Z,55
2016-04-26T04:44:11.204Z,55
2016-04-26T04:45:11.145Z,60
2016-04-26T04:46:11.116Z,60
2016-04-26T04:47:12.322Z,60
2016-04-26T04:48:11.028Z,60
2016-04-26T04:49:10.859Z,65
2016-04-26T04:50:11.001Z,65
2016-04-26T04:51:10.958Z,70
2016-04-26T04:52:10.945Z,70
2016-04-26T04:53:10.884Z,75
2016-04-26T04:54:10.872Z,80
2016-04-26T04:55:10.828Z,90
2016-04-26T04:56:10.799Z,100
2016-04-26T04:57:10.833Z,100
2016-04-26T04:58:10.758Z,105
2016-04-26T04:59:10.714Z,105
2016-04-26T05:00:10.669Z,105
2016-04-26T05:01:10.641Z,105
2016-04-26T05:02:10.300Z,100
2016-04-26T05:03:10.427Z,100
2016-04-26T05:04:10.571Z,95
2016-04-26T05:05:10.527Z,100
2016-04-26T05:06:10.513Z,105
2016-04-26T05:07:10.470Z,125
2016-04-26T05:08:10.424Z,135
2016-04-26T05:09:10.413Z,130
2016-04-26T05:10:10.369Z,120
2016-04-26T05:11:10.355Z,115
2016-04-26T05:12:10.311Z,100
2016-04-26T05:13:10.282Z,100
2016-04-26T05:14:10.254Z,95
2016-04-26T05:15:10.210Z,85
2016-04-26T05:16:10.196Z,85
2016-04-26T05:17:11.324Z,90
2016-04-26T05:18:10.139Z,90
2016-04-26T05:19:10.112Z,95
2016-04-26T05:20:10.068Z,95
2016-04-26T05:21:10.039Z,100
2016-04-26T05:22:09.995Z,100
2016-04-26T05:23:09.981Z,105
2016-04-26T05:24:09.953Z,110
2016-04-26T05:25:09.925Z,115
2016-04-26T05:26:09.895Z,120
2016-04-26T05:27:09.851Z,125
2016-04-26T05:28:09.823Z,135
2016-04-26T05:29:09.826Z,145
2016-04-26T05:30:09.766Z,160
2016-04-26T05:31:09.737Z,160
2016-04-26T05:32:10.084Z,165
2016-04-26T05:33:10.461Z,180
2016-04-26T05:34:09.652Z,195
2016-04-26T05:35:09.623Z,210
2016-04-26T05:36:09.594Z,195
2016-04-26T05:37:09.566Z,185
2016-04-26T05:38:09.521Z,175
2016-04-26T05:39:09.493Z,170
2016-04-26T05:40:09.465Z,170
2016-04-26T05:41:09.451Z,160
2016-04-26T05:42:09.454Z,155
2016-04-26T05:43:09.394Z,150
2016-04-26T05:44:09.366Z,150
2016-04-26T05:45:09.321Z,145
2016-04-26T05:46:09.293Z,145
2016-04-26T05:47:09.264Z,150
2016-04-26T05:48:09.501Z,150
2016-04-26T05:49:09.067Z,150
2016-04-26T05:50:09.195Z,150
2016-04-26T05:51:09.151Z,160
2016-04-26T05:52:09.122Z,160
2016-04-26T05:53:09.093Z,160
2016-04-26T05:54:09.096Z,150
2016-04-26T05:55:08.895Z,140
2016-04-26T05:56:09.008Z,125
2016-04-26T05:57:08.968Z,125
2016-04-26T05:58:09.240Z,140
2016-04-26T05:59:08.649Z,165
2016-04-26T06:00:08.902Z,180
2016-04-26T06:01:09.764Z,170
2016-04-26T06:02:09.964Z,180
2016-04-26T06:03:08.825Z,205
2016-04-26T06:04:08.766Z,315
2016-04-26T06:05:08.754Z,280
2016-04-26T06:06:08.756Z,330
2016-04-26T06:07:08.681Z,290
2016-04-26T06:08:08.668Z,300
2016-04-26T06:09:08.639Z,240
2016-04-26T06:10:08.610Z,195
2016-04-26T06:11:08.582Z,155
2016-04-26T06:12:08.538Z,115
2016-04-26T06:13:08.196Z,80
2016-04-26T06:14:08.496Z,75
2016-04-26T06:15:08.452Z,100
2016-04-26T06:16:08.424Z,105
2016-04-26T06:17:08.693Z,140
2016-04-26T06:18:07.991Z,130
2016-04-26T06:19:08.338Z,100
2016-04-26T06:20:08.043Z,90
2016-04-26T06:21:08.281Z,45
2016-04-26T06:22:08.255Z,55
2016-04-26T06:23:08.211Z,45
2016-04-26T06:24:08.199Z,45
2016-04-26T06:25:08.170Z,45
2016-04-26T06:26:08.141Z,50
2016-04-26T06:27:08.112Z,45
2016-04-26T06:28:07.974Z,45
2016-04-26T06:29:09.962Z,50
2016-04-26T06:30:08.059Z,50
2016-04-26T06:31:08.015Z,75
2016-04-26T06:32:08.173Z,95
2016-04-26T06:33:07.863Z,100
2016-04-26T06:34:07.897Z,150
2016-04-26T06:35:07.884Z,165
2016-04-26T06:36:07.856Z,170
2016-04-26T06:37:07.858Z,145
2016-04-26T06:38:07.798Z,135
2016-04-26T06:39:07.769Z,165
2016-04-26T06:40:07.742Z,180
2016-04-26T06:41:07.697Z,195
2016-04-26T06:42:07.683Z,155
2016-04-26T06:43:07.640Z,190
2016-04-26T06:44:07.455Z,170
2016-04-26T06:45:07.567Z,250
2016-04-26T06:46:07.539Z,325
2016-04-26T06:47:07.432Z,410
2016-04-26T06:48:08.669Z,350
2016-04-26T06:49:07.468Z,295
2016-04-26T06:50:07.440Z,180
2016-04-26T06:51:07.411Z,145
2016-04-26T06:52:07.382Z,95
2016-04-26T06:53:07.338Z,65
2016-04-26T06:54:07.326Z,95
2016-04-26T06:55:07.297Z,95
2016-04-26T06:56:07.268Z,105
2016-04-26T06:57:07.240Z,115
2016-04-26T06:58:07.195Z,100
2016-04-26T06:59:07.182Z,95
2016-04-26T07:00:07.139Z,90
2016-04-26T07:01:07.109Z,100
2016-04-26T07:02:06.940Z,100
2016-04-26T07:03:07.397Z,75
2016-04-26T07:04:07.025Z,45
2016-04-26T07:05:06.981Z,35
2016-04-26T07:06:06.968Z,40
2016-04-26T07:07:06.939Z,60
2016-04-26T07:08:06.911Z,70
2016-04-26T07:09:06.867Z,115
2016-04-26T07:10:06.853Z,140
2016-04-26T07:11:06.825Z,110
2016-04-26T07:12:06.780Z,100
2016-04-26T07:13:06.752Z,105
2016-04-26T07:14:06.739Z,110
2016-04-26T07:15:06.695Z,155
2016-04-26T07:16:06.510Z,150
2016-04-26T07:17:06.653Z,185
2016-04-26T07:18:08.516Z,200
2016-04-26T07:19:06.581Z,180
2016-04-26T07:20:06.552Z,195
2016-04-26T07:21:06.508Z,260
2016-04-26T07:22:06.479Z,270
2016-04-26T07:23:06.455Z,260
2016-04-26T07:24:06.426Z,235
2016-04-26T07:25:06.382Z,200
2016-04-26T07:26:06.354Z,155
2016-04-26T07:27:06.326Z,165
2016-04-26T07:28:06.313Z,110
2016-04-26T07:29:06.284Z,85
2016-04-26T07:30:06.240Z,60
2016-04-26T07:31:06.226Z,55
2016-04-26T07:32:06.198Z,45
2016-04-26T07:33:06.842Z,50
2016-04-26T07:34:06.125Z,60
2016-04-26T07:35:06.098Z,75
2016-04-26T07:36:06.083Z,75
2016-04-26T07:37:06.102Z,120
2016-04-26T07:38:06.012Z,140
2016-04-26T07:39:05.998Z,90
2016-04-26T07:40:05.955Z,75
2016-04-26T07:41:05.910Z,105
2016-04-26T07:42:05.928Z,265
2016-04-26T07:43:05.853Z,210
2016-04-26T07:44:05.824Z,205
2016-04-26T07:45:05.811Z,170
2016-04-26T07:46:06.657Z,150
2016-04-26T07:47:05.724Z,155
2016-04-26T07:48:06.179Z,210
2016-04-26T07:49:05.682Z,285
2016-04-26T07:50:05.653Z,170
2016-04-26T07:51:05.609Z,205
2016-04-26T07:52:05.580Z,165
2016-04-26T07:53:05.568Z,205
2016-04-26T07:54:05.523Z,140
2016-04-26T07:55:05.354Z,145
2016-04-26T07:56:05.465Z,140
2016-04-26T07:57:05.454Z,120
2016-04-26T07:58:05.410Z,75
2016-04-26T07:59:05.365Z,80
2016-04-26T08:00:05.352Z,135
2016-04-26T08:01:05.307Z,170
2016-04-26T08:02:05.294Z,250
2016-04-26T08:03:05.173Z,355
2016-04-26T08:04:05.222Z,340
2016-04-26T08:05:05.209Z,320
2016-04-26T08:06:05.180Z,315
2016-04-26T08:07:05.152Z,315
2016-04-26T08:08:05.139Z,380
2016-04-26T08:09:05.095Z,480
2016-04-26T08:10:05.067Z,540
2016-04-26T08:11:05.038Z,545
2016-04-26T08:12:05.009Z,400
2016-04-26T08:13:04.981Z,350
2016-04-26T08:14:04.952Z,295
2016-04-26T08:15:04.939Z,295
2016-04-26T08:16:04.894Z,280
2016-04-26T08:17:04.866Z,340
2016-04-26T08:18:04.963Z,200
2016-04-26T08:19:04.888Z,160
2016-04-26T08:20:04.797Z,130
2016-04-26T08:21:04.736Z,105
2016-04-26T08:22:04.724Z,125
2016-04-26T08:23:04.711Z,165
2016-04-26T08:24:04.416Z,180
2016-04-26T08:25:04.622Z,175
2016-04-26T08:26:04.609Z,320
2016-04-26T08:27:04.596Z,385
2016-04-26T08:28:04.552Z,160
2016-04-26T08:29:04.530Z,135
2016-04-26T08:30:04.489Z,245
2016-04-26T08:31:04.517Z,175
2016-04-26T08:32:04.531Z,170
2016-04-26T08:33:06.028Z,255
2016-04-26T08:34:04.683Z,245
2016-04-26T08:35:04.538Z,595
2016-04-26T08:36:04.555Z,355
2016-04-26T08:37:04.542Z,1335
2016-04-26T08:38:04.529Z,1750
2016-04-26T08:39:04.515Z,1855
2016-04-26T08:40:04.485Z,1200
2016-04-26T08:41:04.478Z,675
2016-04-26T08:42:04.455Z,635
2016-04-26T08:43:04.446Z,570
2016-04-26T08:44:04.424Z,535
2016-04-26T08:45:04.432Z,470
2016-04-26T08:46:04.373Z,545
2016-04-26T08:47:04.362Z,350
2016-04-26T08:48:05.820Z,300
2016-04-26T08:49:04.715Z,285
2016-04-26T08:50:04.299Z,275
2016-04-26T08:51:04.239Z,325
2016-04-26T08:52:04.226Z,305
2016-04-26T08:53:04.199Z,235
2016-04-26T08:54:04.172Z,375
2016-04-26T08:55:04.144Z,445
2016-04-26T08:56:04.147Z,405
2016-04-26T08:57:04.118Z,435
2016-04-26T08:58:04.107Z,325
2016-04-26T08:59:04.063Z,310
2016-04-26T09:00:03.893Z,370
2016-04-26T09:01:03.990Z,445
2016-04-26T09:02:03.976Z,365
2016-04-26T09:03:05.652Z,380
2016-04-26T09:04:04.888Z,345
2016-04-26T09:05:03.906Z,295
2016-04-26T09:06:03.863Z,215
2016-04-26T09:07:03.850Z,245
2016-04-26T09:08:03.837Z,150
2016-04-26T09:09:03.792Z,210
2016-04-26T09:10:03.779Z,405
2016-04-26T09:11:03.751Z,430
2016-04-26T09:12:03.723Z,285
2016-04-26T09:13:03.678Z,280
2016-04-26T09:14:03.681Z,320
2016-04-26T09:15:03.667Z,350
2016-04-26T09:16:03.624Z,405
2016-04-26T09:17:03.580Z,475
2016-04-26T09:18:03.692Z,485
2016-04-26T09:19:03.538Z,390
2016-04-26T09:20:03.510Z,440
2016-04-26T09:21:03.481Z,505
2016-04-26T09:22:03.906Z,465
2016-04-26T09:23:03.455Z,555
2016-04-26T09:24:03.395Z,565
2016-04-26T09:25:03.367Z,520
2016-04-26T09:26:03.354Z,535
2016-04-26T09:27:03.325Z,470
2016-04-26T09:28:03.313Z,420
2016-04-26T09:29:03.284Z,495
2016-04-26T09:30:03.255Z,460
2016-04-26T09:31:04.023Z,505
2016-04-26T09:32:03.198Z,605
2016-04-26T09:33:03.310Z,615
2016-04-26T09:34:03.157Z,600
2016-04-26T09:35:03.128Z,630
2016-04-26T09:36:03.100Z,500
2016-04-26T09:37:03.087Z,365
2016-04-26T09:38:03.042Z,315
2016-04-26T09:39:06.123Z,245
2016-04-26T09:40:02.985Z,180
2016-04-26T09:41:02.988Z,195
2016-04-26T09:42:02.959Z,185
2016-04-26T09:43:02.962Z,140
2016-04-26T09:44:02.903Z,165
2016-04-26T09:45:02.873Z,180
2016-04-26T09:46:02.845Z,160
2016-04-26T09:47:02.832Z,200
2016-04-26T09:48:02.756Z,225
2016-04-26T09:49:02.963Z,270
2016-04-26T09:50:02.747Z,280
2016-04-26T09:51:02.734Z,225
2016-04-26T09:52:02.689Z,235
2016-04-26T09:53:02.661Z,155
2016-04-26T09:54:02.648Z,135
2016-04-26T09:55:02.636Z,170
2016-04-26T09:56:02.621Z,140
2016-04-26T09:57:02.624Z,115
2016-04-26T09:58:02.565Z,100
2016-04-26T09:59:02.536Z,90
2016-04-26T10:00:02.508Z,85
2016-04-26T10:01:02.495Z,70
2016-04-26T10:02:02.451Z,65
2016-04-26T10:03:02.547Z,50
2016-04-26T10:04:02.909Z,50
2016-04-26T10:05:02.349Z,55
2016-04-26T10:06:02.337Z,55
2016-04-26T10:07:02.308Z,65
2016-04-26T10:08:02.279Z,70
2016-04-26T10:09:02.251Z,80
2016-04-26T10:10:02.222Z,85
2016-04-26T10:11:02.194Z,90
2016-04-26T10:12:02.165Z,95
2016-04-26T10:13:02.137Z,100
2016-04-26T10:14:02.108Z,100
2016-04-26T10:15:02.095Z,120
2016-04-26T10:16:02.050Z,115
2016-04-26T10:17:02.039Z,115
2016-04-26T10:18:01.931Z,135
2016-04-26T10:19:02.575Z,145
2016-04-26T10:20:04.078Z,160
2016-04-26T10:21:01.924Z,170
2016-04-26T10:22:01.894Z,195
2016-04-26T10:23:01.867Z,150
2016-04-26T10:24:01.839Z,130
2016-04-26T10:25:04.434Z,90
2016-04-26T10:26:01.797Z,85
2016-04-26T10:27:01.769Z,100
2016-04-26T10:28:01.739Z,115
2016-04-26T10:29:01.711Z,150
2016-04-26T10:30:01.979Z,230
2016-04-26T10:31:01.655Z,325
2016-04-26T10:32:01.641Z,280
2016-04-26T10:33:02.550Z,185
2016-04-26T10:34:01.460Z,135
2016-04-26T10:35:01.540Z,140
2016-04-26T10:36:01.510Z,190
2016-04-26T10:37:01.483Z,215
2016-04-26T10:38:01.453Z,240
2016-04-26T10:39:05.394Z,215
2016-04-26T10:40:01.443Z,195
2016-04-26T10:41:01.396Z,245
2016-04-26T10:42:01.353Z,265
2016-04-26T10:43:01.323Z,285
2016-04-26T10:44:01.248Z,265
2016-04-26T10:45:01.251Z,300
2016-04-26T10:46:01.223Z,335
2016-04-26T10:47:01.209Z,210
2016-04-26T10:48:01.072Z,170
2016-04-26T10:49:02.686Z,165
2016-04-26T10:50:01.124Z,275
2016-04-26T10:51:01.112Z,540
2016-04-26T10:52:01.051Z,585
2016-04-26T10:53:01.022Z,560
2016-04-26T10:54:05.325Z,495
2016-04-26T10:55:01.013Z,470
2016-04-26T10:56:00.952Z,445
2016-04-26T10:57:00.925Z,355
2016-04-26T10:58:00.896Z,310
2016-04-26T10:59:04.479Z,345
2016-04-26T11:00:00.838Z,300
2016-04-26T11:01:00.825Z,300
2016-04-26T11:02:00.797Z,305
2016-04-26T11:03:01.175Z,235
2016-04-26T11:04:07.821Z,270
2016-04-26T11:05:00.696Z,260
2016-04-26T11:06:00.682Z,260
2016-04-26T11:07:00.655Z,265
2016-04-26T11:08:00.641Z,380
2016-04-26T11:09:03.941Z,320
2016-04-26T11:10:00.585Z,365
2016-04-26T11:11:00.540Z,375
2016-04-26T11:12:00.527Z,375
2016-04-26T11:13:00.529Z,435
2016-04-26T11:14:03.986Z,460
2016-04-26T11:15:00.442Z,415
2016-04-26T11:16:00.413Z,335
2016-04-26T11:17:00.415Z,355
2016-04-26T11:18:01.528Z,335
2016-04-26T11:19:00.671Z,330
2016-04-26T11:20:00.345Z,395
2016-04-26T11:21:00.286Z,420
2016-04-26T11:22:00.289Z,320
2016-04-26T11:23:00.244Z,450
2016-04-26T11:24:00.200Z,375
2016-04-26T11:25:00.172Z,245
2016-04-26T11:26:00.175Z,225
2016-04-26T11:27:00.145Z,205
2016-04-26T11:28:00.102Z,310
2016-04-26T11:29:00.073Z,265
2016-04-26T11:30:00.076Z,240
2016-04-26T11:31:00.047Z,225
2016-04-26T11:32:00.019Z,285
2016-04-26T11:32:59.974Z,310
2016-04-26T11:33:59.711Z,435
2016-04-26T11:34:59.933Z,405
2016-04-26T11:35:59.920Z,350
2016-04-26T11:36:59.735Z,445
2016-04-26T11:37:59.846Z,425
2016-04-26T11:38:59.850Z,380
2016-04-26T11:39:59.805Z,285
2016-04-26T11:40:59.793Z,275
2016-04-26T11:41:59.733Z,395
2016-04-26T11:42:59.720Z,450
2016-04-26T11:43:59.706Z,430
2016-04-26T11:45:01.803Z,435
2016-04-26T11:45:59.651Z,415
2016-04-26T11:46:59.637Z,375
2016-04-26T11:47:59.593Z,335
2016-04-26T11:48:59.580Z,295
2016-04-26T11:49:59.551Z,265
2016-04-26T11:50:59.523Z,255
2016-04-26T11:51:59.509Z,305
2016-04-26T11:52:59.325Z,300
2016-04-26T11:53:59.453Z,310
2016-04-26T11:54:59.425Z,285
2016-04-26T11:55:59.396Z,335
2016-04-26T11:56:59.367Z,410
2016-04-26T11:57:59.338Z,480
2016-04-26T11:58:59.325Z,360
2016-04-26T11:59:59.313Z,320
2016-04-26T12:00:59.283Z,325
2016-04-26T12:01:59.255Z,230
2016-04-26T12:02:59.242Z,380
2016-04-26T12:03:58.792Z,475
2016-04-26T12:04:59.169Z,385
2016-04-26T12:05:59.141Z,330
2016-04-26T12:06:59.128Z,255
2016-04-26T12:07:59.116Z,255
2016-04-26T12:08:59.071Z,190
2016-04-26T12:09:59.058Z,165
2016-04-26T12:10:59.013Z,155
2016-04-26T12:11:59.002Z,170
2016-04-26T12:12:58.957Z,185
2016-04-26T12:13:58.943Z,235
2016-04-26T12:14:58.931Z,280
2016-04-26T12:15:58.934Z,335
2016-04-26T12:16:58.873Z,300
2016-04-26T12:17:58.846Z,370
2016-04-26T12:19:01.364Z,360
2016-04-26T12:19:58.804Z,395
2016-04-26T12:20:58.759Z,375
2016-04-26T12:21:58.747Z,325
2016-04-26T12:22:58.717Z,315
2016-04-26T12:23:58.705Z,330
2016-04-26T12:24:58.676Z,325
2016-04-26T12:25:58.648Z,325
2016-04-26T12:26:58.619Z,340
2016-04-26T12:27:58.591Z,355
2016-04-26T12:28:58.594Z,380
2016-04-26T12:29:58.597Z,440
2016-04-26T12:30:58.521Z,445
2016-04-26T12:31:58.492Z,460
2016-04-26T12:32:58.464Z,495
2016-04-26T12:33:58.200Z,505
2016-04-26T12:34:58.407Z,520
2016-04-26T12:35:58.393Z,555
2016-04-26T12:36:58.350Z,530
2016-04-26T12:37:58.352Z,570
2016-04-26T12:38:58.308Z,525
2016-04-26T12:39:58.296Z,550
2016-04-26T12:40:58.110Z,520
2016-04-26T12:41:58.238Z,510
2016-04-26T12:42:58.225Z,450
2016-04-26T12:43:58.197Z,520
2016-04-26T12:44:58.152Z,475
2016-04-26T12:45:58.139Z,490
2016-04-26T12:46:58.096Z,495
2016-04-26T12:47:58.083Z,560
2016-04-26T12:49:00.804Z,520
2016-04-26T12:49:58.056Z,350
2016-04-26T12:50:58.013Z,235
2016-04-26T12:51:57.999Z,145
2016-04-26T12:52:57.956Z,105
2016-04-26T12:53:57.973Z,75
2016-04-26T12:54:57.929Z,70
2016-04-26T12:55:57.917Z,75
2016-04-26T12:56:57.887Z,75
2016-04-26T12:57:57.890Z,75
2016-04-26T12:58:57.815Z,90
2016-04-26T12:59:57.803Z,80
2016-04-26T13:00:57.773Z,75
2016-04-26T13:01:57.745Z,75
2016-04-26T13:02:57.717Z,80
2016-04-26T13:04:01.078Z,95
2016-04-26T13:04:57.659Z,80
2016-04-26T13:05:57.647Z,80
2016-04-26T13:06:57.602Z,85
2016-04-26T13:07:57.574Z,85
2016-04-26T13:08:57.560Z,80
2016-04-26T13:09:57.533Z,115
2016-04-26T13:10:57.504Z,110
2016-04-26T13:11:57.459Z,160
2016-04-26T13:12:57.446Z,200
2016-04-26T13:13:57.434Z,210
2016-04-26T13:14:57.404Z,200
2016-04-26T13:15:57.376Z,170
2016-04-26T13:16:57.348Z,160
2016-04-26T13:17:57.293Z,150
2016-04-26T13:18:59.529Z,140
2016-04-26T13:19:57.174Z,135
2016-04-26T13:20:57.223Z,125
2016-04-26T13:21:57.194Z,120
2016-04-26T13:22:57.166Z,120
2016-04-26T13:23:57.137Z,120
2016-04-26T13:24:57.140Z,120
2016-04-26T13:25:57.112Z,120
2016-04-26T13:26:57.051Z,120
2016-04-26T13:27:57.383Z,120
2016-04-26T13:28:56.994Z,120
2016-04-26T13:29:57.075Z,125
2016-04-26T13:30:56.937Z,125
2016-04-26T13:31:56.925Z,125
2016-04-26T13:32:56.911Z,125
2016-04-26T13:33:57.039Z,125
2016-04-26T13:34:57.401Z,130
2016-04-26T13:35:56.794Z,165
2016-04-26T13:36:56.783Z,200
2016-04-26T13:37:56.738Z,270
2016-04-26T13:38:56.709Z,280
2016-04-26T13:39:56.697Z,305
2016-04-26T13:40:56.668Z,295
2016-04-26T13:41:56.624Z,255
2016-04-26T13:42:56.641Z,185
2016-04-26T13:43:58.988Z,170
2016-04-26T13:44:56.554Z,165
2016-04-26T13:45:56.509Z,185
2016-04-26T13:46:56.480Z,225
2016-04-26T13:47:56.468Z,245
2016-04-26T13:48:56.626Z,260
2016-04-26T13:49:56.410Z,240
2016-04-26T13:50:57.757Z,235
2016-04-26T13:51:56.384Z,245
2016-04-26T13:52:56.341Z,225
2016-04-26T13:53:56.312Z,170
2016-04-26T13:54:56.268Z,120
2016-04-26T13:55:56.255Z,110
2016-04-26T13:56:56.242Z,160
2016-04-26T13:57:56.214Z,220
2016-04-26T13:58:56.200Z,195
2016-04-26T14:00:00.203Z,145
2016-04-26T14:00:58.925Z,140
2016-04-26T14:01:58.225Z,170
2016-04-26T14:02:56.070Z,210
2016-04-26T14:03:56.448Z,280
2016-04-26T14:04:55.998Z,275
2016-04-26T14:05:55.985Z,295
2016-04-26T14:06:55.956Z,350